sensor_id;sensor_type;location;lat;lon;timestamp;P1;durP1;ratioP1;P2;durP2;ratioP2
1082;SDS011;530;51.448;7.238;2023-03-05T00:00:09;6.50;;;2.90;;
1082;SDS011;530;51.448;7.238;2023-03-05T00:02:36;5.80;;;2.50;;
1082;SDS011;530;51.448;7.238;2023-03-05T00:05:02;7.10;;;3.13;;
1082;SDS011;530;51.448;7.238;2023-03-05T00:07:28;7.00;;;3.13;;
1082;SDS011;530;51.448;7.238;2023-03-05T00:09:53;6.30;;;2.87;;
1082;SDS011;530;51.448;7.238;2023-03-05T00:12:19;7.23;;;2.57;;
1082;SDS011;530;51.448;7.238;2023-03-05T00:14:45;9.73;;;3.13;;
1082;SDS011;530;51.448;7.238;2023-03-05T00:17:10;6.00;;;3.23;;
1082;SDS011;530;51.448;7.238;2023-03-05T00:19:39;8.47;;;3.77;;
1082;SDS011;530;51.448;7.238;2023-03-05T00:22:05;8.13;;;3.00;;
1082;SDS011;530;51.448;7.238;2023-03-05T00:24:31;6.90;;;2.87;;
1082;SDS011;530;51.448;7.238;2023-03-05T00:26:57;11.60;;;3.50;;
1082;SDS011;530;51.448;7.238;2023-03-05T00:29:22;9.77;;;3.77;;
1082;SDS011;530;51.448;7.238;2023-03-05T00:31:48;7.50;;;4.10;;
1082;SDS011;530;51.448;7.238;2023-03-05T00:34:15;11.00;;;4.63;;
1082;SDS011;530;51.448;7.238;2023-03-05T00:36:43;8.90;;;3.90;;
1082;SDS011;530;51.448;7.238;2023-03-05T00:39:13;9.20;;;4.20;;
1082;SDS011;530;51.448;7.238;2023-03-05T00:41:41;8.63;;;3.07;;
1082;SDS011;530;51.448;7.238;2023-03-05T00:44:07;5.90;;;3.10;;
1082;SDS011;530;51.448;7.238;2023-03-05T00:46:33;8.87;;;3.03;;
1082;SDS011;530;51.448;7.238;2023-03-05T00:48:59;9.07;;;2.87;;
1082;SDS011;530;51.448;7.238;2023-03-05T00:51:25;7.73;;;3.50;;
1082;SDS011;530;51.448;7.238;2023-03-05T00:53:51;11.27;;;5.33;;
1082;SDS011;530;51.448;7.238;2023-03-05T00:56:17;10.33;;;4.23;;
1082;SDS011;530;51.448;7.238;2023-03-05T00:58:43;10.10;;;5.23;;
1082;SDS011;530;51.448;7.238;2023-03-05T01:01:09;7.23;;;4.70;;
1082;SDS011;530;51.448;7.238;2023-03-05T01:03:35;9.80;;;4.20;;
1082;SDS011;530;51.448;7.238;2023-03-05T01:06:03;13.03;;;5.20;;
1082;SDS011;530;51.448;7.238;2023-03-05T01:08:30;6.73;;;4.30;;
1082;SDS011;530;51.448;7.238;2023-03-05T01:10:56;5.97;;;3.60;;
1082;SDS011;530;51.448;7.238;2023-03-05T01:13:22;6.10;;;3.60;;
1082;SDS011;530;51.448;7.238;2023-03-05T01:15:48;8.97;;;4.20;;
1082;SDS011;530;51.448;7.238;2023-03-05T01:18:14;7.57;;;3.17;;
1082;SDS011;530;51.448;7.238;2023-03-05T01:20:41;5.57;;;2.63;;
1082;SDS011;530;51.448;7.238;2023-03-05T01:23:07;7.63;;;3.30;;
1082;SDS011;530;51.448;7.238;2023-03-05T01:25:33;5.90;;;3.07;;
1082;SDS011;530;51.448;7.238;2023-03-05T01:27:59;6.93;;;2.90;;
1082;SDS011;530;51.448;7.238;2023-03-05T01:30:25;6.60;;;2.60;;
1082;SDS011;530;51.448;7.238;2023-03-05T01:32:50;4.90;;;2.17;;
1082;SDS011;530;51.448;7.238;2023-03-05T01:35:17;5.20;;;2.50;;
1082;SDS011;530;51.448;7.238;2023-03-05T01:37:46;10.97;;;2.90;;
1082;SDS011;530;51.448;7.238;2023-03-05T01:40:13;6.80;;;2.13;;
1082;SDS011;530;51.448;7.238;2023-03-05T01:42:45;6.80;;;3.67;;
1082;SDS011;530;51.448;7.238;2023-03-05T01:45:13;5.47;;;3.50;;
1082;SDS011;530;51.448;7.238;2023-03-05T01:47:42;7.97;;;3.83;;
1082;SDS011;530;51.448;7.238;2023-03-05T01:50:09;6.60;;;2.60;;
1082;SDS011;530;51.448;7.238;2023-03-05T01:52:38;9.43;;;2.87;;
1082;SDS011;530;51.448;7.238;2023-03-05T01:55:08;4.10;;;2.40;;
1082;SDS011;530;51.448;7.238;2023-03-05T01:57:40;8.00;;;3.20;;
1082;SDS011;530;51.448;7.238;2023-03-05T02:00:18;5.40;;;2.90;;
1082;SDS011;530;51.448;7.238;2023-03-05T02:02:48;8.87;;;3.00;;
1082;SDS011;530;51.448;7.238;2023-03-05T02:05:17;6.80;;;3.50;;
1082;SDS011;530;51.448;7.238;2023-03-05T02:07:51;4.10;;;2.80;;
1082;SDS011;530;51.448;7.238;2023-03-05T02:10:19;7.67;;;3.50;;
1082;SDS011;530;51.448;7.238;2023-03-05T02:12:59;6.83;;;4.00;;
1082;SDS011;530;51.448;7.238;2023-03-05T02:15:28;8.23;;;4.27;;
1082;SDS011;530;51.448;7.238;2023-03-05T02:17:55;8.03;;;3.50;;
1082;SDS011;530;51.448;7.238;2023-03-05T02:20:22;7.23;;;3.37;;
1082;SDS011;530;51.448;7.238;2023-03-05T02:22:53;6.20;;;3.57;;
1082;SDS011;530;51.448;7.238;2023-03-05T02:25:20;9.03;;;3.57;;
1082;SDS011;530;51.448;7.238;2023-03-05T02:30:23;3.63;;;2.60;;
1082;SDS011;530;51.448;7.238;2023-03-05T02:32:49;8.23;;;4.00;;
1082;SDS011;530;51.448;7.238;2023-03-05T02:35:15;6.07;;;2.23;;
1082;SDS011;530;51.448;7.238;2023-03-05T02:37:40;3.00;;;1.83;;
1082;SDS011;530;51.448;7.238;2023-03-05T02:40:07;3.93;;;2.27;;
1082;SDS011;530;51.448;7.238;2023-03-05T02:42:34;6.80;;;3.30;;
1082;SDS011;530;51.448;7.238;2023-03-05T02:45:00;2.73;;;1.80;;
1082;SDS011;530;51.448;7.238;2023-03-05T02:47:27;2.90;;;2.00;;
1082;SDS011;530;51.448;7.238;2023-03-05T02:49:53;4.40;;;1.70;;
1082;SDS011;530;51.448;7.238;2023-03-05T02:52:19;6.00;;;1.53;;
1082;SDS011;530;51.448;7.238;2023-03-05T02:54:47;5.23;;;1.80;;
1082;SDS011;530;51.448;7.238;2023-03-05T02:57:13;4.63;;;1.60;;
1082;SDS011;530;51.448;7.238;2023-03-05T02:59:39;6.07;;;1.60;;
1082;SDS011;530;51.448;7.238;2023-03-05T03:02:05;5.30;;;1.43;;
1082;SDS011;530;51.448;7.238;2023-03-05T03:04:30;4.30;;;1.60;;
1082;SDS011;530;51.448;7.238;2023-03-05T03:06:56;4.20;;;1.70;;
1082;SDS011;530;51.448;7.238;2023-03-05T03:09:22;3.70;;;1.47;;
1082;SDS011;530;51.448;7.238;2023-03-05T03:11:47;5.87;;;1.60;;
1082;SDS011;530;51.448;7.238;2023-03-05T03:14:13;3.53;;;1.60;;
1082;SDS011;530;51.448;7.238;2023-03-05T03:16:39;5.20;;;2.17;;
1082;SDS011;530;51.448;7.238;2023-03-05T03:19:04;7.90;;;2.10;;
1082;SDS011;530;51.448;7.238;2023-03-05T03:21:30;3.93;;;2.37;;
1082;SDS011;530;51.448;7.238;2023-03-05T03:23:56;8.07;;;2.50;;
1082;SDS011;530;51.448;7.238;2023-03-05T03:26:21;7.67;;;2.43;;
1082;SDS011;530;51.448;7.238;2023-03-05T03:28:47;12.83;;;3.00;;
1082;SDS011;530;51.448;7.238;2023-03-05T03:31:13;4.97;;;2.63;;
1082;SDS011;530;51.448;7.238;2023-03-05T03:33:39;6.77;;;2.40;;
1082;SDS011;530;51.448;7.238;2023-03-05T03:36:04;5.33;;;2.70;;
1082;SDS011;530;51.448;7.238;2023-03-05T03:38:31;7.27;;;3.40;;
1082;SDS011;530;51.448;7.238;2023-03-05T03:40:56;5.87;;;3.40;;
1082;SDS011;530;51.448;7.238;2023-03-05T03:43:22;3.60;;;2.80;;
1082;SDS011;530;51.448;7.238;2023-03-05T03:45:48;7.73;;;2.87;;
1082;SDS011;530;51.448;7.238;2023-03-05T03:48:13;3.37;;;2.20;;
1082;SDS011;530;51.448;7.238;2023-03-05T03:50:40;2.63;;;2.10;;
1082;SDS011;530;51.448;7.238;2023-03-05T03:53:06;4.73;;;1.97;;
1082;SDS011;530;51.448;7.238;2023-03-05T03:55:32;4.43;;;1.90;;
1082;SDS011;530;51.448;7.238;2023-03-05T03:57:59;3.70;;;2.10;;
1082;SDS011;530;51.448;7.238;2023-03-05T04:00:25;6.30;;;2.13;;
1082;SDS011;530;51.448;7.238;2023-03-05T04:02:50;4.20;;;2.27;;
1082;SDS011;530;51.448;7.238;2023-03-05T04:05:16;4.33;;;1.77;;
1082;SDS011;530;51.448;7.238;2023-03-05T04:07:42;4.17;;;2.27;;
1082;SDS011;530;51.448;7.238;2023-03-05T04:10:09;5.20;;;2.20;;
1082;SDS011;530;51.448;7.238;2023-03-05T04:12:36;4.23;;;2.33;;
1082;SDS011;530;51.448;7.238;2023-03-05T04:15:02;3.67;;;2.67;;
1082;SDS011;530;51.448;7.238;2023-03-05T04:17:29;7.57;;;2.83;;
1082;SDS011;530;51.448;7.238;2023-03-05T04:19:56;4.70;;;2.40;;
1082;SDS011;530;51.448;7.238;2023-03-05T04:22:22;8.00;;;3.43;;
1082;SDS011;530;51.448;7.238;2023-03-05T04:24:47;7.27;;;2.50;;
1082;SDS011;530;51.448;7.238;2023-03-05T04:27:13;8.60;;;3.70;;
1082;SDS011;530;51.448;7.238;2023-03-05T04:29:39;6.70;;;3.40;;
1082;SDS011;530;51.448;7.238;2023-03-05T04:32:05;6.47;;;3.90;;
1082;SDS011;530;51.448;7.238;2023-03-05T04:34:31;4.53;;;3.17;;
1082;SDS011;530;51.448;7.238;2023-03-05T04:36:57;5.97;;;3.37;;
1082;SDS011;530;51.448;7.238;2023-03-05T04:39:23;6.10;;;3.50;;
1082;SDS011;530;51.448;7.238;2023-03-05T04:41:49;4.63;;;3.23;;
1082;SDS011;530;51.448;7.238;2023-03-05T04:44:15;7.83;;;3.70;;
1082;SDS011;530;51.448;7.238;2023-03-05T04:46:41;5.53;;;2.77;;
1082;SDS011;530;51.448;7.238;2023-03-05T04:49:07;5.00;;;3.47;;
1082;SDS011;530;51.448;7.238;2023-03-05T04:51:33;7.67;;;3.20;;
1082;SDS011;530;51.448;7.238;2023-03-05T04:53:59;6.90;;;3.20;;
1082;SDS011;530;51.448;7.238;2023-03-05T04:56:25;3.57;;;2.53;;
1082;SDS011;530;51.448;7.238;2023-03-05T04:58:51;9.13;;;4.17;;
1082;SDS011;530;51.448;7.238;2023-03-05T05:01:16;10.30;;;5.63;;
1082;SDS011;530;51.448;7.238;2023-03-05T05:03:42;18.83;;;7.40;;
1082;SDS011;530;51.448;7.238;2023-03-05T05:06:08;12.20;;;8.13;;
1082;SDS011;530;51.448;7.238;2023-03-05T05:08:36;12.93;;;7.00;;
1082;SDS011;530;51.448;7.238;2023-03-05T05:11:03;14.70;;;8.80;;
1082;SDS011;530;51.448;7.238;2023-03-05T05:13:30;15.57;;;8.70;;
1082;SDS011;530;51.448;7.238;2023-03-05T05:15:57;14.93;;;9.30;;
1082;SDS011;530;51.448;7.238;2023-03-05T05:18:23;15.93;;;8.43;;
1082;SDS011;530;51.448;7.238;2023-03-05T05:20:49;14.47;;;9.60;;
1082;SDS011;530;51.448;7.238;2023-03-05T05:23:15;20.60;;;11.43;;
1082;SDS011;530;51.448;7.238;2023-03-05T05:25:41;16.23;;;10.43;;
1082;SDS011;530;51.448;7.238;2023-03-05T05:28:08;16.17;;;9.80;;
1082;SDS011;530;51.448;7.238;2023-03-05T05:30:34;17.70;;;10.00;;
1082;SDS011;530;51.448;7.238;2023-03-05T05:33:00;19.13;;;10.60;;
1082;SDS011;530;51.448;7.238;2023-03-05T05:35:26;24.30;;;10.50;;
1082;SDS011;530;51.448;7.238;2023-03-05T05:37:51;16.60;;;10.07;;
1082;SDS011;530;51.448;7.238;2023-03-05T05:40:17;16.83;;;9.70;;
1082;SDS011;530;51.448;7.238;2023-03-05T05:42:43;20.83;;;10.00;;
1082;SDS011;530;51.448;7.238;2023-03-05T05:45:09;16.13;;;9.53;;
1082;SDS011;530;51.448;7.238;2023-03-05T05:47:35;14.90;;;9.67;;
1082;SDS011;530;51.448;7.238;2023-03-05T05:50:01;16.80;;;8.97;;
1082;SDS011;530;51.448;7.238;2023-03-05T05:52:27;14.43;;;10.07;;
1082;SDS011;530;51.448;7.238;2023-03-05T05:54:52;13.33;;;8.73;;
1082;SDS011;530;51.448;7.238;2023-03-05T05:57:18;14.93;;;9.47;;
1082;SDS011;530;51.448;7.238;2023-03-05T05:59:44;14.10;;;8.60;;
1082;SDS011;530;51.448;7.238;2023-03-05T06:02:09;16.80;;;10.10;;
1082;SDS011;530;51.448;7.238;2023-03-05T06:04:35;13.70;;;8.80;;
1082;SDS011;530;51.448;7.238;2023-03-05T06:07:02;13.57;;;7.77;;
1082;SDS011;530;51.448;7.238;2023-03-05T06:09:28;15.70;;;9.13;;
1082;SDS011;530;51.448;7.238;2023-03-05T06:11:53;15.07;;;8.70;;
1082;SDS011;530;51.448;7.238;2023-03-05T06:14:19;14.83;;;7.90;;
1082;SDS011;530;51.448;7.238;2023-03-05T06:16:45;12.17;;;7.07;;
1082;SDS011;530;51.448;7.238;2023-03-05T06:19:11;11.23;;;6.83;;
1082;SDS011;530;51.448;7.238;2023-03-05T06:21:39;14.93;;;6.83;;
1082;SDS011;530;51.448;7.238;2023-03-05T06:24:05;11.43;;;6.23;;
1082;SDS011;530;51.448;7.238;2023-03-05T06:26:31;11.00;;;7.53;;
1082;SDS011;530;51.448;7.238;2023-03-05T06:28:57;9.20;;;6.83;;
1082;SDS011;530;51.448;7.238;2023-03-05T06:31:24;9.80;;;6.77;;
1082;SDS011;530;51.448;7.238;2023-03-05T06:33:51;18.17;;;7.70;;
1082;SDS011;530;51.448;7.238;2023-03-05T06:36:19;13.60;;;7.10;;
1082;SDS011;530;51.448;7.238;2023-03-05T06:38:46;12.10;;;6.83;;
1082;SDS011;530;51.448;7.238;2023-03-05T06:41:13;9.20;;;5.47;;
1082;SDS011;530;51.448;7.238;2023-03-05T06:43:44;10.00;;;5.73;;
1082;SDS011;530;51.448;7.238;2023-03-05T06:46:12;9.03;;;4.93;;
1082;SDS011;530;51.448;7.238;2023-03-05T06:48:40;12.83;;;5.57;;
1082;SDS011;530;51.448;7.238;2023-03-05T06:54:04;12.13;;;4.80;;
1082;SDS011;530;51.448;7.238;2023-03-05T06:56:34;5.80;;;4.40;;
1082;SDS011;530;51.448;7.238;2023-03-05T06:59:01;13.00;;;4.80;;
1082;SDS011;530;51.448;7.238;2023-03-05T07:01:27;9.90;;;4.43;;
1082;SDS011;530;51.448;7.238;2023-03-05T07:03:53;6.50;;;3.70;;
1082;SDS011;530;51.448;7.238;2023-03-05T07:06:20;10.13;;;4.07;;
1082;SDS011;530;51.448;7.238;2023-03-05T07:08:46;10.60;;;4.20;;
1082;SDS011;530;51.448;7.238;2023-03-05T07:11:14;6.73;;;4.17;;
1082;SDS011;530;51.448;7.238;2023-03-05T07:13:42;4.50;;;3.57;;
1082;SDS011;530;51.448;7.238;2023-03-05T07:16:09;7.00;;;3.67;;
1082;SDS011;530;51.448;7.238;2023-03-05T07:18:38;8.37;;;3.80;;
1082;SDS011;530;51.448;7.238;2023-03-05T07:21:04;5.17;;;3.67;;
1082;SDS011;530;51.448;7.238;2023-03-05T07:23:30;4.43;;;3.30;;
1082;SDS011;530;51.448;7.238;2023-03-05T07:25:59;11.30;;;3.67;;
1082;SDS011;530;51.448;7.238;2023-03-05T07:28:28;8.50;;;3.50;;
1082;SDS011;530;51.448;7.238;2023-03-05T07:30:58;8.43;;;3.80;;
1082;SDS011;530;51.448;7.238;2023-03-05T07:33:26;7.30;;;4.07;;
1082;SDS011;530;51.448;7.238;2023-03-05T07:35:52;6.97;;;4.20;;
1082;SDS011;530;51.448;7.238;2023-03-05T07:38:18;10.90;;;5.50;;
1082;SDS011;530;51.448;7.238;2023-03-05T07:40:44;7.23;;;3.67;;
1082;SDS011;530;51.448;7.238;2023-03-05T07:43:10;9.60;;;4.23;;
1082;SDS011;530;51.448;7.238;2023-03-05T07:45:39;8.00;;;4.20;;
1082;SDS011;530;51.448;7.238;2023-03-05T07:48:06;5.30;;;3.53;;
1082;SDS011;530;51.448;7.238;2023-03-05T07:50:36;5.80;;;3.63;;
1082;SDS011;530;51.448;7.238;2023-03-05T07:53:02;7.23;;;5.30;;
1082;SDS011;530;51.448;7.238;2023-03-05T07:55:27;11.80;;;4.53;;
1082;SDS011;530;51.448;7.238;2023-03-05T07:57:53;11.87;;;4.90;;
1082;SDS011;530;51.448;7.238;2023-03-05T08:00:19;15.10;;;5.17;;
1082;SDS011;530;51.448;7.238;2023-03-05T08:02:45;11.20;;;5.50;;
1082;SDS011;530;51.448;7.238;2023-03-05T08:05:11;10.10;;;5.70;;
1082;SDS011;530;51.448;7.238;2023-03-05T08:07:36;11.40;;;6.90;;
1082;SDS011;530;51.448;7.238;2023-03-05T08:10:02;21.27;;;9.57;;
1082;SDS011;530;51.448;7.238;2023-03-05T08:12:28;21.43;;;13.83;;
1082;SDS011;530;51.448;7.238;2023-03-05T08:14:54;21.80;;;13.13;;
1082;SDS011;530;51.448;7.238;2023-03-05T08:17:20;28.87;;;14.50;;
1082;SDS011;530;51.448;7.238;2023-03-05T08:19:45;22.00;;;13.70;;
1082;SDS011;530;51.448;7.238;2023-03-05T08:22:11;27.13;;;13.37;;
1082;SDS011;530;51.448;7.238;2023-03-05T08:24:40;23.67;;;15.00;;
1082;SDS011;530;51.448;7.238;2023-03-05T08:27:06;24.17;;;15.10;;
1082;SDS011;530;51.448;7.238;2023-03-05T08:29:32;26.03;;;14.53;;
1082;SDS011;530;51.448;7.238;2023-03-05T08:31:58;23.03;;;14.97;;
1082;SDS011;530;51.448;7.238;2023-03-05T08:34:23;20.93;;;13.83;;
1082;SDS011;530;51.448;7.238;2023-03-05T08:36:49;17.87;;;12.63;;
1082;SDS011;530;51.448;7.238;2023-03-05T08:39:15;15.63;;;11.93;;
1082;SDS011;530;51.448;7.238;2023-03-05T08:41:40;15.43;;;11.70;;
1082;SDS011;530;51.448;7.238;2023-03-05T08:44:06;17.77;;;11.60;;
1082;SDS011;530;51.448;7.238;2023-03-05T08:46:32;15.40;;;11.33;;
1082;SDS011;530;51.448;7.238;2023-03-05T08:48:58;14.30;;;10.00;;
1082;SDS011;530;51.448;7.238;2023-03-05T08:51:25;18.10;;;10.13;;
1082;SDS011;530;51.448;7.238;2023-03-05T08:53:51;15.03;;;10.60;;
1082;SDS011;530;51.448;7.238;2023-03-05T08:56:19;14.13;;;9.23;;
1082;SDS011;530;51.448;7.238;2023-03-05T08:58:44;13.63;;;10.50;;
1082;SDS011;530;51.448;7.238;2023-03-05T09:01:11;14.53;;;11.30;;
1082;SDS011;530;51.448;7.238;2023-03-05T09:03:38;19.13;;;13.13;;
1082;SDS011;530;51.448;7.238;2023-03-05T09:06:05;19.40;;;14.13;;
1082;SDS011;530;51.448;7.238;2023-03-05T09:08:33;19.73;;;14.20;;
1082;SDS011;530;51.448;7.238;2023-03-05T09:11:03;17.83;;;14.60;;
1082;SDS011;530;51.448;7.238;2023-03-05T09:13:31;19.87;;;15.17;;
1082;SDS011;530;51.448;7.238;2023-03-05T09:15:59;18.13;;;15.20;;
1082;SDS011;530;51.448;7.238;2023-03-05T09:18:26;15.90;;;13.97;;
1082;SDS011;530;51.448;7.238;2023-03-05T09:20:52;22.00;;;15.10;;
1082;SDS011;530;51.448;7.238;2023-03-05T09:23:18;18.97;;;14.47;;
1082;SDS011;530;51.448;7.238;2023-03-05T09:25:44;18.20;;;14.90;;
1082;SDS011;530;51.448;7.238;2023-03-05T09:28:10;16.07;;;13.80;;
1082;SDS011;530;51.448;7.238;2023-03-05T09:30:36;17.27;;;14.30;;
1082;SDS011;530;51.448;7.238;2023-03-05T09:33:02;16.53;;;14.80;;
1082;SDS011;530;51.448;7.238;2023-03-05T09:35:28;16.87;;;14.67;;
1082;SDS011;530;51.448;7.238;2023-03-05T09:37:54;16.83;;;14.30;;
1082;SDS011;530;51.448;7.238;2023-03-05T09:40:21;14.83;;;13.23;;
1082;SDS011;530;51.448;7.238;2023-03-05T09:42:57;17.67;;;13.90;;
1082;SDS011;530;51.448;7.238;2023-03-05T09:51:04;19.60;;;14.60;;
1082;SDS011;530;51.448;7.238;2023-03-05T09:56:36;17.33;;;13.80;;
1082;SDS011;530;51.448;7.238;2023-03-05T10:01:49;16.50;;;13.53;;
1082;SDS011;530;51.448;7.238;2023-03-05T10:04:22;16.53;;;12.33;;
1082;SDS011;530;51.448;7.238;2023-03-05T10:06:57;20.83;;;12.80;;
1082;SDS011;530;51.448;7.238;2023-03-05T10:14:57;15.80;;;12.50;;
1082;SDS011;530;51.448;7.238;2023-03-05T10:28:03;12.80;;;10.70;;
1082;SDS011;530;51.448;7.238;2023-03-05T10:30:49;14.13;;;11.10;;
1082;SDS011;530;51.448;7.238;2023-03-05T10:33:42;16.10;;;10.00;;
1082;SDS011;530;51.448;7.238;2023-03-05T10:39:35;10.43;;;8.13;;
1082;SDS011;530;51.448;7.238;2023-03-05T10:42:24;10.00;;;8.30;;
1082;SDS011;530;51.448;7.238;2023-03-05T10:45:11;10.90;;;8.87;;
1082;SDS011;530;51.448;7.238;2023-03-05T10:47:51;11.33;;;10.10;;
1082;SDS011;530;51.448;7.238;2023-03-05T10:50:26;10.93;;;8.83;;
1082;SDS011;530;51.448;7.238;2023-03-05T10:53:11;10.93;;;8.73;;
1082;SDS011;530;51.448;7.238;2023-03-05T10:55:50;11.80;;;8.93;;
1082;SDS011;530;51.448;7.238;2023-03-05T10:58:20;15.40;;;10.53;;
1082;SDS011;530;51.448;7.238;2023-03-05T11:01:18;11.90;;;8.53;;
1082;SDS011;530;51.448;7.238;2023-03-05T11:09:16;10.27;;;7.67;;
1082;SDS011;530;51.448;7.238;2023-03-05T11:12:15;9.10;;;7.10;;
1082;SDS011;530;51.448;7.238;2023-03-05T11:17:34;7.17;;;5.70;;
1082;SDS011;530;51.448;7.238;2023-03-05T11:41:50;7.43;;;6.03;;
1082;SDS011;530;51.448;7.238;2023-03-05T11:44:21;6.50;;;5.30;;
1082;SDS011;530;51.448;7.238;2023-03-05T11:46:51;8.00;;;6.53;;
1082;SDS011;530;51.448;7.238;2023-03-05T11:49:26;7.73;;;6.10;;
1082;SDS011;530;51.448;7.238;2023-03-05T11:54:26;7.30;;;5.70;;
1082;SDS011;530;51.448;7.238;2023-03-05T11:57:00;8.27;;;5.70;;
1082;SDS011;530;51.448;7.238;2023-03-05T11:59:29;5.73;;;4.57;;
1082;SDS011;530;51.448;7.238;2023-03-05T12:01:59;5.50;;;4.57;;
1082;SDS011;530;51.448;7.238;2023-03-05T12:04:25;4.50;;;4.10;;
1082;SDS011;530;51.448;7.238;2023-03-05T12:06:53;3.20;;;2.63;;
1082;SDS011;530;51.448;7.238;2023-03-05T12:09:39;4.30;;;3.27;;
1082;SDS011;530;51.448;7.238;2023-03-05T12:23:42;2.40;;;2.07;;
1082;SDS011;530;51.448;7.238;2023-03-05T12:26:12;2.80;;;2.40;;
1082;SDS011;530;51.448;7.238;2023-03-05T12:33:40;4.03;;;2.00;;
1082;SDS011;530;51.448;7.238;2023-03-05T12:36:34;3.80;;;1.73;;
1082;SDS011;530;51.448;7.238;2023-03-05T12:39:00;2.50;;;1.50;;
1082;SDS011;530;51.448;7.238;2023-03-05T12:41:46;3.53;;;2.13;;
1082;SDS011;530;51.448;7.238;2023-03-05T12:44:15;4.40;;;1.90;;
1082;SDS011;530;51.448;7.238;2023-03-05T12:47:13;5.23;;;2.27;;
1082;SDS011;530;51.448;7.238;2023-03-05T12:49:43;3.10;;;2.80;;
1082;SDS011;530;51.448;7.238;2023-03-05T12:52:30;4.17;;;3.80;;
1082;SDS011;530;51.448;7.238;2023-03-05T12:57:52;6.20;;;5.60;;
1082;SDS011;530;51.448;7.238;2023-03-05T13:03:23;6.97;;;6.27;;
1082;SDS011;530;51.448;7.238;2023-03-05T13:05:56;7.10;;;6.40;;
1082;SDS011;530;51.448;7.238;2023-03-05T13:08:33;6.57;;;5.43;;
1082;SDS011;530;51.448;7.238;2023-03-05T13:11:07;6.20;;;5.60;;
1082;SDS011;530;51.448;7.238;2023-03-05T13:13:45;8.10;;;5.30;;
1082;SDS011;530;51.448;7.238;2023-03-05T13:16:25;5.20;;;4.30;;
1082;SDS011;530;51.448;7.238;2023-03-05T13:18:53;6.50;;;5.90;;
1082;SDS011;530;51.448;7.238;2023-03-05T13:21:25;6.80;;;5.33;;
1082;SDS011;530;51.448;7.238;2023-03-05T13:23:54;8.27;;;5.10;;
1082;SDS011;530;51.448;7.238;2023-03-05T13:31:35;6.20;;;4.83;;
1082;SDS011;530;51.448;7.238;2023-03-05T13:36:46;7.37;;;5.60;;
1082;SDS011;530;51.448;7.238;2023-03-05T13:39:19;5.90;;;5.30;;
1082;SDS011;530;51.448;7.238;2023-03-05T13:44:25;6.00;;;5.40;;
1082;SDS011;530;51.448;7.238;2023-03-05T13:46:53;4.40;;;3.90;;
1082;SDS011;530;51.448;7.238;2023-03-05T13:49:56;4.80;;;4.40;;
1082;SDS011;530;51.448;7.238;2023-03-05T13:52:31;4.43;;;4.03;;
1082;SDS011;530;51.448;7.238;2023-03-05T13:55:00;4.40;;;4.00;;
1082;SDS011;530;51.448;7.238;2023-03-05T14:00:00;4.67;;;4.27;;
1082;SDS011;530;51.448;7.238;2023-03-05T14:02:26;4.70;;;4.10;;
1082;SDS011;530;51.448;7.238;2023-03-05T14:04:53;6.47;;;5.33;;
1082;SDS011;530;51.448;7.238;2023-03-05T14:09:49;6.80;;;5.30;;
1082;SDS011;530;51.448;7.238;2023-03-05T14:12:39;8.63;;;5.20;;
1082;SDS011;530;51.448;7.238;2023-03-05T14:15:19;8.90;;;8.00;;
1082;SDS011;530;51.448;7.238;2023-03-05T14:17:48;10.67;;;8.60;;
1082;SDS011;530;51.448;7.238;2023-03-05T14:22:56;14.47;;;9.23;;
1082;SDS011;530;51.448;7.238;2023-03-05T14:25:34;12.80;;;8.20;;
1082;SDS011;530;51.448;7.238;2023-03-05T14:30:47;6.20;;;5.60;;
1082;SDS011;530;51.448;7.238;2023-03-05T14:33:22;5.63;;;5.03;;
1082;SDS011;530;51.448;7.238;2023-03-05T14:35:53;8.80;;;6.07;;
1082;SDS011;530;51.448;7.238;2023-03-05T14:38:28;8.67;;;6.40;;
1082;SDS011;530;51.448;7.238;2023-03-05T14:40:57;7.70;;;6.90;;
1082;SDS011;530;51.448;7.238;2023-03-05T14:43:42;14.10;;;8.13;;
1082;SDS011;530;51.448;7.238;2023-03-05T14:46:08;10.10;;;8.03;;
1082;SDS011;530;51.448;7.238;2023-03-05T14:48:33;9.50;;;7.87;;
1082;SDS011;530;51.448;7.238;2023-03-05T14:50:59;12.10;;;10.30;;
1082;SDS011;530;51.448;7.238;2023-03-05T14:53:26;13.57;;;10.63;;
1082;SDS011;530;51.448;7.238;2023-03-05T14:55:54;11.83;;;9.43;;
1082;SDS011;530;51.448;7.238;2023-03-05T14:58:25;15.03;;;10.90;;
1082;SDS011;530;51.448;7.238;2023-03-05T15:00:56;11.93;;;9.20;;
1082;SDS011;530;51.448;7.238;2023-03-05T15:03:23;13.03;;;9.10;;
1082;SDS011;530;51.448;7.238;2023-03-05T15:05:50;11.70;;;9.43;;
1082;SDS011;530;51.448;7.238;2023-03-05T15:08:18;12.80;;;8.90;;
1082;SDS011;530;51.448;7.238;2023-03-05T15:10:47;12.17;;;9.40;;
1082;SDS011;530;51.448;7.238;2023-03-05T15:13:13;12.77;;;10.00;;
1082;SDS011;530;51.448;7.238;2023-03-05T15:15:40;11.23;;;9.03;;
1082;SDS011;530;51.448;7.238;2023-03-05T15:18:09;10.37;;;8.73;;
1082;SDS011;530;51.448;7.238;2023-03-05T15:20:39;8.17;;;6.93;;
1082;SDS011;530;51.448;7.238;2023-03-05T15:23:04;8.13;;;7.07;;
1082;SDS011;530;51.448;7.238;2023-03-05T15:25:31;8.00;;;6.90;;
1082;SDS011;530;51.448;7.238;2023-03-05T15:27:56;8.70;;;6.50;;
1082;SDS011;530;51.448;7.238;2023-03-05T15:32:53;7.60;;;5.63;;
1082;SDS011;530;51.448;7.238;2023-03-05T15:35:20;7.60;;;6.17;;
1082;SDS011;530;51.448;7.238;2023-03-05T15:37:46;9.33;;;6.57;;
1082;SDS011;530;51.448;7.238;2023-03-05T15:40:12;8.27;;;6.00;;
1082;SDS011;530;51.448;7.238;2023-03-05T15:42:38;7.90;;;6.13;;
1082;SDS011;530;51.448;7.238;2023-03-05T15:45:04;7.97;;;6.20;;
1082;SDS011;530;51.448;7.238;2023-03-05T15:47:30;7.77;;;6.10;;
1082;SDS011;530;51.448;7.238;2023-03-05T15:49:56;8.10;;;6.40;;
1082;SDS011;530;51.448;7.238;2023-03-05T15:52:21;9.37;;;6.70;;
1082;SDS011;530;51.448;7.238;2023-03-05T15:54:47;7.97;;;6.10;;
1082;SDS011;530;51.448;7.238;2023-03-05T15:57:13;8.70;;;7.40;;
1082;SDS011;530;51.448;7.238;2023-03-05T15:59:38;7.83;;;7.03;;
1082;SDS011;530;51.448;7.238;2023-03-05T16:02:04;9.90;;;6.53;;
1082;SDS011;530;51.448;7.238;2023-03-05T16:04:30;8.87;;;7.10;;
1082;SDS011;530;51.448;7.238;2023-03-05T16:06:56;7.10;;;6.40;;
1082;SDS011;530;51.448;7.238;2023-03-05T16:09:25;8.23;;;7.10;;
1082;SDS011;530;51.448;7.238;2023-03-05T16:11:54;8.27;;;6.40;;
1082;SDS011;530;51.448;7.238;2023-03-05T16:14:21;8.93;;;8.03;;
1082;SDS011;530;51.448;7.238;2023-03-05T16:16:50;7.40;;;6.07;;
1082;SDS011;530;51.448;7.238;2023-03-05T16:19:19;7.57;;;5.87;;
1082;SDS011;530;51.448;7.238;2023-03-05T16:21:46;7.13;;;6.37;;
1082;SDS011;530;51.448;7.238;2023-03-05T16:24:12;8.10;;;6.20;;
1082;SDS011;530;51.448;7.238;2023-03-05T16:26:38;6.70;;;6.00;;
1082;SDS011;530;51.448;7.238;2023-03-05T16:29:05;6.83;;;6.13;;
1082;SDS011;530;51.448;7.238;2023-03-05T16:31:31;7.50;;;6.23;;
1082;SDS011;530;51.448;7.238;2023-03-05T16:33:58;7.67;;;6.50;;
1082;SDS011;530;51.448;7.238;2023-03-05T16:36:28;10.20;;;6.90;;
1082;SDS011;530;51.448;7.238;2023-03-05T16:38:55;11.03;;;7.50;;
1082;SDS011;530;51.448;7.238;2023-03-05T16:41:23;8.53;;;6.80;;
1082;SDS011;530;51.448;7.238;2023-03-05T16:43:50;8.53;;;6.70;;
1082;SDS011;530;51.448;7.238;2023-03-05T16:46:26;8.73;;;7.63;;
1082;SDS011;530;51.448;7.238;2023-03-05T16:48:53;7.90;;;6.80;;
1082;SDS011;530;51.448;7.238;2023-03-05T16:51:19;9.67;;;7.50;;
1082;SDS011;530;51.448;7.238;2023-03-05T16:53:45;10.90;;;7.70;;
1082;SDS011;530;51.448;7.238;2023-03-05T16:56:11;10.70;;;8.77;;
1082;SDS011;530;51.448;7.238;2023-03-05T16:58:37;12.33;;;8.77;;
1082;SDS011;530;51.448;7.238;2023-03-05T17:01:14;11.73;;;8.90;;
1082;SDS011;530;51.448;7.238;2023-03-05T17:03:44;11.60;;;9.37;;
1082;SDS011;530;51.448;7.238;2023-03-05T17:06:15;10.60;;;8.70;;
1082;SDS011;530;51.448;7.238;2023-03-05T17:08:42;14.97;;;9.93;;
1082;SDS011;530;51.448;7.238;2023-03-05T17:11:10;15.83;;;12.00;;
1082;SDS011;530;51.448;7.238;2023-03-05T17:13:36;19.43;;;13.00;;
1082;SDS011;530;51.448;7.238;2023-03-05T17:16:02;17.47;;;12.23;;
1082;SDS011;530;51.448;7.238;2023-03-05T17:18:29;25.17;;;17.90;;
1082;SDS011;530;51.448;7.238;2023-03-05T17:20:55;19.73;;;14.90;;
1082;SDS011;530;51.448;7.238;2023-03-05T17:23:21;18.57;;;11.53;;